Time,TemperatureF,DewpointF,PressureIn,WindDirection,WindDirectionDegrees,WindSpeedMPH,WindSpeedGustMPH,Humidity,HourlyPrecipIn,Conditions,Clouds,dailyrainin,SolarRadiationWatts/m^2,SoftwareType,DateUTC
2013-02-08 00:02:00,33.0,21.0,-100.00,ESE,114,3.0,5.0,61,0.00,,,0.00,0.000000,,2013-02-08 05:02:00,
2013-02-08 00:11:00,33.0,21.0,-100.00,ESE,114,3.0,5.0,61,0.00,,,0.00,0.000000,,2013-02-08 05:11:00,
2013-02-08 00:22:00,33.0,21.0,-100.00,ESE,114,3.0,5.0,61,0.00,,,0.00,0.000000,,2013-02-08 05:22:00,
2013-02-08 00:32:00,33.0,21.0,-100.00,ESE,114,3.0,5.0,61,0.00,,,0.00,0.000000,,2013-02-08 05:32:00,
2013-02-08 00:40:00,33.0,22.0,-100.00,ESE,117,3.0,6.0,63,0.00,,,0.00,0.000000,,2013-02-08 05:40:00,
2013-02-08 01:01:00,33.0,22.0,-100.00,ESE,117,3.0,6.0,63,0.00,,,0.00,0.000000,,2013-02-08 06:01:00,
2013-02-08 01:11:00,33.0,22.0,-100.00,ESE,117,3.0,6.0,63,0.00,,,0.00,0.000000,,2013-02-08 06:11:00,
2013-02-08 01:21:00,33.0,22.0,-100.00,ESE,117,3.0,6.0,63,0.00,,,0.00,0.000000,,2013-02-08 06:21:00,
2013-02-08 01:32:00,33.0,22.0,-100.00,ESE,117,3.0,6.0,63,0.00,,,0.00,0.000000,,2013-02-08 06:32:00,
2013-02-08 01:40:00,31.0,22.0,-100.00,East,99,4.0,7.0,70,0.00,,,0.00,0.000000,,2013-02-08 06:40:00,
2013-02-08 02:01:00,31.0,22.0,-100.00,East,99,4.0,7.0,70,0.00,,,0.00,0.000000,,2013-02-08 07:01:00,
2013-02-08 02:11:00,31.0,22.0,-100.00,East,99,4.0,7.0,70,0.00,,,0.00,0.000000,,2013-02-08 07:11:00,
2013-02-08 02:21:00,31.0,22.0,-100.00,East,99,4.0,7.0,70,0.00,,,0.00,0.000000,,2013-02-08 07:21:00,
2013-02-08 02:32:00,31.0,22.0,-100.00,East,99,4.0,7.0,70,0.00,,,0.00,0.000000,,2013-02-08 07:32:00,
2013-02-08 02:40:00,30.0,23.0,-100.00,East,96,4.0,6.0,76,0.00,,,0.00,0.000000,,2013-02-08 07:40:00,
2013-02-08 03:01:00,30.0,23.0,-100.00,East,96,4.0,6.0,76,0.00,,,0.00,0.000000,,2013-02-08 08:01:00,
2013-02-08 03:11:00,30.0,23.0,-100.00,East,96,4.0,6.0,76,0.00,,,0.00,0.000000,,2013-02-08 08:11:00,
2013-02-08 03:21:00,30.0,23.0,-100.00,East,96,4.0,6.0,76,0.00,,,0.00,0.000000,,2013-02-08 08:21:00,
2013-02-08 03:32:00,30.0,23.0,-100.00,East,96,4.0,6.0,76,0.00,,,0.00,0.000000,,2013-02-08 08:32:00,
2013-02-08 03:40:00,28.0,23.0,-100.00,East,98,3.0,6.0,81,0.00,,,0.00,0.000000,,2013-02-08 08:40:00,
2013-02-08 04:03:00,28.0,23.0,-100.00,East,98,3.0,6.0,81,0.00,,,0.00,0.000000,,2013-02-08 09:03:00,
2013-02-08 04:11:00,28.0,23.0,-100.00,East,98,3.0,6.0,81,0.00,,,0.00,0.000000,,2013-02-08 09:11:00,
2013-02-08 04:21:00,28.0,23.0,-100.00,East,98,3.0,6.0,81,0.00,,,0.00,0.000000,,2013-02-08 09:21:00,
2013-02-08 04:32:00,28.0,23.0,-100.00,East,98,3.0,6.0,81,0.00,,,0.00,0.000000,,2013-02-08 09:32:00,
2013-02-08 04:40:00,27.0,23.0,-100.00,SE,130,5.0,7.0,84,0.00,,,0.00,0.000000,,2013-02-08 09:40:00,
2013-02-08 05:01:00,27.0,23.0,-100.00,SE,130,5.0,7.0,84,0.00,,,0.00,0.000000,,2013-02-08 10:01:00,
2013-02-08 05:11:00,27.0,23.0,-100.00,SE,130,5.0,7.0,84,0.00,,,0.00,0.000000,,2013-02-08 10:11:00,
2013-02-08 05:22:00,27.0,23.0,-100.00,SE,130,5.0,7.0,84,0.00,,,0.00,0.000000,,2013-02-08 10:22:00,
2013-02-08 05:32:00,27.0,23.0,-100.00,SE,130,5.0,7.0,84,0.00,,,0.00,0.000000,,2013-02-08 10:32:00,
2013-02-08 05:40:00,25.0,21.0,-100.00,East,87,1.0,7.0,86,0.00,,,0.00,0.000000,,2013-02-08 10:40:00,
2013-02-08 06:01:00,25.0,21.0,-100.00,East,87,1.0,7.0,86,0.00,,,0.00,0.000000,,2013-02-08 11:01:00,
2013-02-08 06:11:00,25.0,21.0,-100.00,East,87,1.0,7.0,86,0.00,,,0.00,0.000000,,2013-02-08 11:11:00,
2013-02-08 06:21:00,25.0,21.0,-100.00,East,87,1.0,7.0,86,0.00,,,0.00,0.000000,,2013-02-08 11:21:00,
2013-02-08 06:32:00,25.0,21.0,-100.00,East,87,1.0,7.0,86,0.00,,,0.00,0.000000,,2013-02-08 11:32:00,
2013-02-08 06:40:00,25.0,22.0,-100.00,East,97,1.0,4.0,89,0.00,,,-99.99,0.000000,,2013-02-08 11:40:00,
2013-02-08 07:02:00,25.0,22.0,-100.00,East,97,1.0,4.0,89,0.00,,,-99.99,0.000000,,2013-02-08 12:02:00,
2013-02-08 07:11:00,25.0,22.0,-100.00,East,97,1.0,4.0,89,0.00,,,-99.99,0.000000,,2013-02-08 12:11:00,
2013-02-08 07:22:00,25.0,22.0,-100.00,East,97,1.0,4.0,89,0.00,,,-99.99,0.000000,,2013-02-08 12:22:00,
2013-02-08 07:33:00,25.0,22.0,-100.00,East,97,1.0,4.0,89,0.00,,,-99.99,0.000000,,2013-02-08 12:33:00,
2013-02-08 07:40:00,23.0,20.0,-100.00,SSW,193,0.0,5.0,88,0.00,,,0.00,0.000000,,2013-02-08 12:40:00,
2013-02-08 08:02:00,23.0,20.0,-100.00,SSW,193,0.0,5.0,88,0.00,,,0.00,0.000000,,2013-02-08 13:02:00,
2013-02-08 08:11:00,23.0,20.0,-100.00,SSW,193,0.0,5.0,88,0.00,,,0.00,0.000000,,2013-02-08 13:11:00,
2013-02-08 08:22:00,23.0,20.0,-100.00,SSW,193,0.0,5.0,88,0.00,,,0.00,0.000000,,2013-02-08 13:22:00,
2013-02-08 08:32:00,23.0,20.0,-100.00,SSW,193,0.0,5.0,88,0.00,,,0.00,0.000000,,2013-02-08 13:32:00,
2013-02-08 08:40:00,22.0,20.0,-100.00,WNW,285,0.0,2.0,90,0.00,,,0.00,0.000000,,2013-02-08 13:40:00,
2013-02-08 09:02:00,22.0,20.0,-100.00,WNW,285,0.0,2.0,90,0.00,,,0.00,0.000000,,2013-02-08 14:02:00,
2013-02-08 09:11:00,22.0,20.0,-100.00,WNW,285,0.0,2.0,90,0.00,,,0.00,0.000000,,2013-02-08 14:11:00,
2013-02-08 09:22:00,22.0,20.0,-100.00,WNW,285,0.0,2.0,90,0.00,,,0.00,0.000000,,2013-02-08 14:22:00,
2013-02-08 09:32:00,22.0,20.0,-100.00,WNW,285,0.0,2.0,90,0.00,,,0.00,0.000000,,2013-02-08 14:32:00,
2013-02-08 09:40:00,20.0,16.0,-100.00,SW,231,0.0,2.0,86,0.00,,,0.00,4.000000,,2013-02-08 14:40:00,
2013-02-08 10:02:00,20.0,16.0,-100.00,SW,231,0.0,2.0,86,0.00,,,0.00,4.000000,,2013-02-08 15:02:00,
2013-02-08 10:11:00,20.0,16.0,-100.00,SW,231,0.0,2.0,86,0.00,,,0.00,4.000000,,2013-02-08 15:11:00,
2013-02-08 10:22:00,20.0,16.0,-100.00,SW,231,0.0,2.0,86,0.00,,,0.00,4.000000,,2013-02-08 15:22:00,
2013-02-08 10:32:00,20.0,16.0,-100.00,SW,231,0.0,2.0,86,0.00,,,0.00,4.000000,,2013-02-08 15:32:00,
2013-02-08 10:40:00,26.0,22.0,-100.00,WNW,301,0.0,1.0,83,0.00,,,0.00,89.000000,,2013-02-08 15:40:00,
2013-02-08 11:01:00,26.0,22.0,-100.00,WNW,301,0.0,1.0,83,0.00,,,0.00,89.000000,,2013-02-08 16:01:00,
2013-02-08 11:11:00,26.0,22.0,-100.00,WNW,301,0.0,1.0,83,0.00,,,0.00,89.000000,,2013-02-08 16:11:00,
2013-02-08 11:22:00,26.0,22.0,-100.00,WNW,301,0.0,1.0,83,0.00,,,0.00,89.000000,,2013-02-08 16:22:00,
2013-02-08 11:32:00,26.0,22.0,-100.00,WNW,301,0.0,1.0,83,0.00,,,0.00,89.000000,,2013-02-08 16:32:00,
2013-02-08 11:40:00,33.0,24.0,-100.00,WSW,246,2.0,4.0,70,0.00,,,0.00,281.000000,,2013-02-08 16:40:00,
2013-02-08 12:03:00,33.0,24.0,-100.00,WSW,246,2.0,4.0,70,0.00,,,0.00,281.000000,,2013-02-08 17:03:00,
2013-02-08 12:12:00,33.0,24.0,-100.00,WSW,246,2.0,4.0,70,0.00,,,0.00,281.000000,,2013-02-08 17:12:00,
2013-02-08 12:23:00,33.0,24.0,-100.00,WSW,246,2.0,4.0,70,0.00,,,0.00,281.000000,,2013-02-08 17:23:00,
2013-02-08 12:32:00,33.0,24.0,-100.00,WSW,246,2.0,4.0,70,0.00,,,0.00,281.000000,,2013-02-08 17:32:00,
2013-02-08 12:40:00,40.0,25.0,-100.00,SE,130,1.0,5.0,54,0.00,,,0.00,443.000000,,2013-02-08 17:40:00,
2013-02-08 13:02:00,40.0,25.0,-100.00,SE,130,1.0,5.0,54,0.00,,,0.00,443.000000,,2013-02-08 18:02:00,
2013-02-08 14:02:00,44.0,24.0,-100.00,NNE,27,0.0,5.0,45,0.00,,,0.00,545.000000,,2013-02-08 19:02:00,
2013-02-08 14:40:00,43.0,24.0,-100.00,North,359,1.0,4.0,47,-99.99,,,0.00,492.000000,,2013-02-08 19:40:00,
2013-02-08 15:02:00,43.0,24.0,-100.00,North,359,1.0,4.0,47,-99.99,,,0.00,492.000000,,2013-02-08 20:02:00,
2013-02-08 15:11:00,43.0,24.0,-100.00,North,359,1.0,4.0,47,-99.99,,,0.00,492.000000,,2013-02-08 20:11:00,
2013-02-08 15:22:00,43.0,24.0,-100.00,North,359,1.0,4.0,47,-99.99,,,0.00,492.000000,,2013-02-08 20:22:00,
2013-02-08 15:32:00,43.0,24.0,-100.00,North,359,1.0,4.0,47,-99.99,,,0.00,492.000000,,2013-02-08 20:32:00,
2013-02-08 15:40:00,40.0,22.0,-100.00,NNW,333,4.0,7.0,49,0.00,,,0.00,476.000000,,2013-02-08 20:40:00,
2013-02-08 16:02:00,40.0,22.0,-100.00,NNW,333,4.0,7.0,49,0.00,,,0.00,476.000000,,2013-02-08 21:02:00,
2013-02-08 16:11:00,40.0,22.0,-100.00,NNW,333,4.0,7.0,49,0.00,,,0.00,476.000000,,2013-02-08 21:11:00,
2013-02-08 16:22:00,40.0,22.0,-100.00,NNW,333,4.0,7.0,49,0.00,,,0.00,476.000000,,2013-02-08 21:22:00,
2013-02-08 16:32:00,40.0,22.0,-100.00,NNW,333,4.0,7.0,49,0.00,,,0.00,476.000000,,2013-02-08 21:32:00,
2013-02-08 16:40:00,39.0,24.0,-100.00,NNW,337,4.0,8.0,54,0.00,,,0.00,365.000000,,2013-02-08 21:40:00,
2013-02-08 17:02:00,39.0,24.0,-100.00,NNW,337,4.0,8.0,54,0.00,,,0.00,365.000000,,2013-02-08 22:02:00,
2013-02-08 17:11:00,39.0,24.0,-100.00,NNW,337,4.0,8.0,54,0.00,,,0.00,365.000000,,2013-02-08 22:11:00,
2013-02-08 17:22:00,39.0,24.0,-100.00,NNW,337,4.0,8.0,54,0.00,,,0.00,365.000000,,2013-02-08 22:22:00,
2013-02-08 17:32:00,39.0,24.0,-100.00,NNW,337,4.0,8.0,54,0.00,,,0.00,365.000000,,2013-02-08 22:32:00,
2013-02-08 17:40:00,39.0,24.0,-100.00,NNW,341,7.0,10.0,54,0.00,,,0.00,315.000000,,2013-02-08 22:40:00,
2013-02-08 18:01:00,39.0,24.0,-100.00,NNW,341,7.0,10.0,54,0.00,,,0.00,315.000000,,2013-02-08 23:01:00,
2013-02-08 18:11:00,39.0,24.0,-100.00,NNW,341,7.0,10.0,54,0.00,,,0.00,315.000000,,2013-02-08 23:11:00,
2013-02-08 18:21:00,39.0,24.0,-100.00,NNW,341,7.0,10.0,54,0.00,,,0.00,315.000000,,2013-02-08 23:21:00,
2013-02-08 18:32:00,39.0,24.0,-100.00,NNW,341,7.0,10.0,54,0.00,,,0.00,315.000000,,2013-02-08 23:32:00,
2013-02-08 18:40:00,33.0,24.0,-100.00,North,357,4.0,13.0,68,0.00,,,0.00,118.000000,,2013-02-08 23:40:00,
2013-02-08 19:02:00,33.0,24.0,-100.00,North,357,4.0,13.0,68,0.00,,,0.00,118.000000,,2013-02-09 00:02:00,
2013-02-08 19:11:00,33.0,24.0,-100.00,North,357,4.0,13.0,68,0.00,,,0.00,118.000000,,2013-02-09 00:11:00,
2013-02-08 19:22:00,33.0,24.0,-100.00,North,357,4.0,13.0,68,0.00,,,0.00,118.000000,,2013-02-09 00:22:00,
2013-02-08 19:32:00,33.0,24.0,-100.00,North,357,4.0,13.0,68,0.00,,,0.00,118.000000,,2013-02-09 00:32:00,
2013-02-08 19:40:00,32.0,25.0,-100.00,NE,45,2.0,5.0,76,0.00,,,0.00,9.000000,,2013-02-09 00:40:00,
2013-02-08 20:01:00,32.0,25.0,-100.00,NE,45,2.0,5.0,76,0.00,,,0.00,9.000000,,2013-02-09 01:01:00,
2013-02-08 20:11:00,32.0,25.0,-100.00,NE,45,2.0,5.0,76,0.00,,,0.00,9.000000,,2013-02-09 01:11:00,
2013-02-08 20:22:00,32.0,25.0,-100.00,NE,45,2.0,5.0,76,0.00,,,0.00,9.000000,,2013-02-09 01:22:00,
2013-02-08 20:32:00,32.0,25.0,-100.00,NE,45,2.0,5.0,76,0.00,,,0.00,9.000000,,2013-02-09 01:32:00,
2013-02-08 20:40:00,30.0,24.0,-100.00,NW,326,2.0,5.0,79,0.00,,,0.00,0.000000,,2013-02-09 01:40:00,
2013-02-08 21:01:00,30.0,24.0,-100.00,NW,326,2.0,5.0,79,0.00,,,0.00,0.000000,,2013-02-09 02:01:00,
2013-02-08 21:11:00,30.0,24.0,-100.00,NW,326,2.0,5.0,79,0.00,,,0.00,0.000000,,2013-02-09 02:11:00,
2013-02-08 21:21:00,30.0,24.0,-100.00,NW,326,2.0,5.0,79,0.00,,,0.00,0.000000,,2013-02-09 02:21:00,
2013-02-08 21:32:00,30.0,24.0,-100.00,NW,326,2.0,5.0,79,0.00,,,0.00,0.000000,,2013-02-09 02:32:00,
2013-02-08 21:40:00,30.0,24.0,-100.00,NNW,344,3.0,9.0,79,0.00,,,-99.99,0.000000,,2013-02-09 02:40:00,
2013-02-08 22:02:00,30.0,24.0,-100.00,NNW,344,3.0,9.0,79,0.00,,,-99.99,0.000000,,2013-02-09 03:02:00,
2013-02-08 22:11:00,30.0,24.0,-100.00,NNW,344,3.0,9.0,79,0.00,,,-99.99,0.000000,,2013-02-09 03:11:00,
2013-02-08 22:22:00,30.0,24.0,-100.00,NNW,344,3.0,9.0,79,0.00,,,-99.99,0.000000,,2013-02-09 03:22:00,
2013-02-08 22:32:00,30.0,24.0,-100.00,NNW,344,3.0,9.0,79,0.00,,,-99.99,0.000000,,2013-02-09 03:32:00,
2013-02-08 22:40:00,28.0,23.0,-100.00,NNW,343,2.0,4.0,81,0.00,,,0.00,0.000000,,2013-02-09 03:40:00,
2013-02-08 23:02:00,28.0,23.0,-100.00,NNW,343,2.0,4.0,81,0.00,,,0.00,0.000000,,2013-02-09 04:02:00,
2013-02-08 23:12:00,28.0,23.0,-100.00,NNW,343,2.0,4.0,81,0.00,,,0.00,0.000000,,2013-02-09 04:12:00,
2013-02-08 23:23:00,28.0,23.0,-100.00,NNW,343,2.0,4.0,81,0.00,,,0.00,0.000000,,2013-02-09 04:23:00,
2013-02-08 23:32:00,28.0,23.0,-100.00,NNW,343,2.0,4.0,81,0.00,,,0.00,0.000000,,2013-02-09 04:32:00,
2013-02-08 23:40:00,27.0,23.0,-100.00,ENE,75,1.0,3.0,85,0.00,,,0.00,0.000000,,2013-02-09 04:40:00,